sensor_id;sensor_type;location;lat;lon;timestamp;pressure;altitude;pressure_sealevel;temperature;humidity
8334;BME280;4204;43.004;23.052;2023-01-31T00:01:27;93307.97;;;-0.41;100.00
8334;BME280;4204;43.004;23.052;2023-01-31T00:03:56;93307.47;;;-0.33;100.00
8334;BME280;4204;43.004;23.052;2023-01-31T00:06:25;93311.66;;;-0.32;100.00
8334;BME280;4204;43.004;23.052;2023-01-31T00:08:54;93320.00;;;-0.40;100.00
8334;BME280;4204;43.004;23.052;2023-01-31T00:11:24;93320.53;;;-0.33;100.00
8334;BME280;4204;43.004;23.052;2023-01-31T00:13:52;93323.06;;;-0.58;100.00
8334;BME280;4204;43.004;23.052;2023-01-31T00:16:21;93310.28;;;-0.54;100.00
8334;BME280;4204;43.004;23.052;2023-01-31T00:18:49;93322.31;;;-0.48;100.00
8334;BME280;4204;43.004;23.052;2023-01-31T00:21:18;93316.56;;;-0.45;100.00
8334;BME280;4204;43.004;23.052;2023-01-31T00:23:47;93302.50;;;-0.44;100.00
8334;BME280;4204;43.004;23.052;2023-01-31T00:26:16;93293.81;;;-0.60;100.00
8334;BME280;4204;43.004;23.052;2023-01-31T00:28:46;93290.97;;;-0.48;100.00
8334;BME280;4204;43.004;23.052;2023-01-31T00:31:16;93287.84;;;-0.50;100.00
8334;BME280;4204;43.004;23.052;2023-01-31T00:33:45;93280.00;;;-0.50;100.00
8334;BME280;4204;43.004;23.052;2023-01-31T00:36:15;93290.44;;;-0.55;100.00
8334;BME280;4204;43.004;23.052;2023-01-31T00:38:47;93303.75;;;-0.57;100.00
8334;BME280;4204;43.004;23.052;2023-01-31T00:41:17;93317.28;;;-0.75;100.00
8334;BME280;4204;43.004;23.052;2023-01-31T00:43:46;93306.84;;;-0.70;100.00
8334;BME280;4204;43.004;23.052;2023-01-31T00:46:14;93305.28;;;-0.66;100.00
8334;BME280;4204;43.004;23.052;2023-01-31T00:48:42;93313.41;;;-0.57;100.00
8334;BME280;4204;43.004;23.052;2023-01-31T00:51:10;93317.06;;;-0.58;100.00
8334;BME280;4204;43.004;23.052;2023-01-31T00:53:38;93315.75;;;-0.56;100.00
8334;BME280;4204;43.004;23.052;2023-01-31T00:56:07;93311.63;;;-0.47;100.00
8334;BME280;4204;43.004;23.052;2023-01-31T00:58:36;93303.81;;;-0.37;100.00
8334;BME280;4204;43.004;23.052;2023-01-31T01:01:07;93303.81;;;-0.27;100.00
8334;BME280;4204;43.004;23.052;2023-01-31T01:03:35;93301.22;;;-0.27;100.00
8334;BME280;4204;43.004;23.052;2023-01-31T01:06:04;93281.22;;;1.13;100.00
8334;BME280;4204;43.004;23.052;2023-01-31T01:08:33;93279.78;;;0.62;100.00
8334;BME280;4204;43.004;23.052;2023-01-31T01:11:04;93285.03;;;0.17;100.00
8334;BME280;4204;43.004;23.052;2023-01-31T01:13:32;93304.53;;;-0.51;100.00
8334;BME280;4204;43.004;23.052;2023-01-31T01:16:03;93290.66;;;-0.77;100.00
8334;BME280;4204;43.004;23.052;2023-01-31T01:18:33;93294.81;;;-0.81;100.00
8334;BME280;4204;43.004;23.052;2023-01-31T01:21:06;93288.75;;;-0.92;100.00
8334;BME280;4204;43.004;23.052;2023-01-31T01:23:35;93301.50;;;-1.00;100.00
8334;BME280;4204;43.004;23.052;2023-01-31T01:26:03;93303.53;;;-1.07;100.00
8334;BME280;4204;43.004;23.052;2023-01-31T01:28:32;93310.41;;;-0.96;100.00
8334;BME280;4204;43.004;23.052;2023-01-31T01:31:04;93302.47;;;-0.49;100.00
8334;BME280;4204;43.004;23.052;2023-01-31T01:33:34;93317.91;;;-0.48;100.00
8334;BME280;4204;43.004;23.052;2023-01-31T01:36:02;93310.50;;;-0.66;100.00
8334;BME280;4204;43.004;23.052;2023-01-31T01:38:32;93300.88;;;-0.55;100.00
8334;BME280;4204;43.004;23.052;2023-01-31T01:41:00;93292.72;;;-0.74;100.00
8334;BME280;4204;43.004;23.052;2023-01-31T01:43:40;93296.16;;;-0.63;100.00
8334;BME280;4204;43.004;23.052;2023-01-31T01:46:11;93293.53;;;-0.63;100.00
8334;BME280;4204;43.004;23.052;2023-01-31T01:48:42;93285.75;;;-0.58;100.00
8334;BME280;4204;43.004;23.052;2023-01-31T01:51:12;93286.03;;;-0.40;100.00
8334;BME280;4204;43.004;23.052;2023-01-31T01:53:46;93282.09;;;-0.37;100.00
8334;BME280;4204;43.004;23.052;2023-01-31T01:56:21;93271.91;;;-0.49;100.00
8334;BME280;4204;43.004;23.052;2023-01-31T01:58:55;93273.88;;;-0.86;100.00
8334;BME280;4204;43.004;23.052;2023-01-31T02:01:25;93275.59;;;-1.12;100.00
8334;BME280;4204;43.004;23.052;2023-01-31T02:03:57;93275.44;;;-0.90;100.00
8334;BME280;4204;43.004;23.052;2023-01-31T02:06:24;93264.00;;;-0.79;100.00
8334;BME280;4204;43.004;23.052;2023-01-31T02:08:53;93270.31;;;-0.65;100.00
8334;BME280;4204;43.004;23.052;2023-01-31T02:11:22;93278.38;;;-0.71;100.00
8334;BME280;4204;43.004;23.052;2023-01-31T02:13:55;93276.59;;;-0.56;100.00
8334;BME280;4204;43.004;23.052;2023-01-31T02:16:24;93278.44;;;-0.56;100.00
8334;BME280;4204;43.004;23.052;2023-01-31T02:18:52;93281.84;;;-0.46;100.00
8334;BME280;4204;43.004;23.052;2023-01-31T02:21:45;93287.09;;;-0.26;100.00
8334;BME280;4204;43.004;23.052;2023-01-31T02:27:54;93302.81;;;-0.11;100.00
8334;BME280;4204;43.004;23.052;2023-01-31T02:30:47;93305.97;;;-0.09;100.00
8334;BME280;4204;43.004;23.052;2023-01-31T02:33:29;93325.81;;;-0.13;100.00
8334;BME280;4204;43.004;23.052;2023-01-31T02:36:07;93330.50;;;-0.20;100.00
8334;BME280;4204;43.004;23.052;2023-01-31T02:38:47;93323.72;;;-0.16;100.00
8334;BME280;4204;43.004;23.052;2023-01-31T02:41:23;93330.50;;;-0.10;100.00
8334;BME280;4204;43.004;23.052;2023-01-31T02:43:59;93336.78;;;-0.16;100.00
8334;BME280;4204;43.004;23.052;2023-01-31T02:46:54;93330.53;;;-0.05;100.00
8334;BME280;4204;43.004;23.052;2023-01-31T02:49:29;93332.09;;;-0.04;100.00
8334;BME280;4204;43.004;23.052;2023-01-31T02:52:20;93346.19;;;-0.10;100.00
8334;BME280;4204;43.004;23.052;2023-01-31T02:55:01;93350.38;;;-0.04;100.00
8334;BME280;4204;43.004;23.052;2023-01-31T02:57:51;93351.94;;;-0.08;100.00
8334;BME280;4204;43.004;23.052;2023-01-31T03:00:21;93355.59;;;-0.04;100.00
8334;BME280;4204;43.004;23.052;2023-01-31T03:02:50;93359.28;;;-0.05;100.00
8334;BME280;4204;43.004;23.052;2023-01-31T03:05:19;93367.06;;;-0.20;100.00
8334;BME280;4204;43.004;23.052;2023-01-31T03:07:49;93345.97;;;0.22;100.00
8334;BME280;4204;43.004;23.052;2023-01-31T03:10:30;93341.03;;;0.21;100.00
8334;BME280;4204;43.004;23.052;2023-01-31T03:13:11;93350.66;;;0.05;100.00
8334;BME280;4204;43.004;23.052;2023-01-31T03:15:56;93341.78;;;0.01;100.00
8334;BME280;4204;43.004;23.052;2023-01-31T03:18:51;93342.53;;;-0.04;100.00
8334;BME280;4204;43.004;23.052;2023-01-31T03:21:29;93349.06;;;-0.06;100.00
8334;BME280;4204;43.004;23.052;2023-01-31T03:24:00;93345.41;;;-0.10;100.00
8334;BME280;4204;43.004;23.052;2023-01-31T03:26:31;93345.69;;;-0.07;100.00
8334;BME280;4204;43.004;23.052;2023-01-31T03:29:00;93352.44;;;-0.16;100.00
8334;BME280;4204;43.004;23.052;2023-01-31T03:31:35;93346.47;;;-0.11;100.00
8334;BME280;4204;43.004;23.052;2023-01-31T03:34:07;93339.34;;;-0.31;100.00
8334;BME280;4204;43.004;23.052;2023-01-31T03:36:42;93370.25;;;-0.13;100.00
8334;BME280;4204;43.004;23.052;2023-01-31T03:39:37;93369.94;;;-0.16;100.00
8334;BME280;4204;43.004;23.052;2023-01-31T03:42:12;93372.06;;;-0.13;100.00
8334;BME280;4204;43.004;23.052;2023-01-31T03:44:47;93373.88;;;-0.14;100.00
8334;BME280;4204;43.004;23.052;2023-01-31T03:47:21;93379.13;;;-0.09;100.00
8334;BME280;4204;43.004;23.052;2023-01-31T03:49:51;93373.63;;;-0.12;100.00
8334;BME280;4204;43.004;23.052;2023-01-31T03:52:26;93382.28;;;-0.07;100.00
8334;BME280;4204;43.004;23.052;2023-01-31T03:54:58;93379.91;;;-0.13;100.00
8334;BME280;4204;43.004;23.052;2023-01-31T03:57:32;93378.34;;;-0.09;100.00
8334;BME280;4204;43.004;23.052;2023-01-31T04:00:04;93371.81;;;-0.07;100.00
8334;BME280;4204;43.004;23.052;2023-01-31T04:02:41;93378.88;;;-0.07;100.00
8334;BME280;4204;43.004;23.052;2023-01-31T04:05:13;93366.56;;;-0.12;100.00
8334;BME280;4204;43.004;23.052;2023-01-31T04:07:46;93374.41;;;-0.12;100.00
8334;BME280;4204;43.004;23.052;2023-01-31T04:10:21;93382.22;;;-0.22;100.00
8334;BME280;4204;43.004;23.052;2023-01-31T04:12:49;93384.81;;;-0.27;100.00
8334;BME280;4204;43.004;23.052;2023-01-31T04:15:17;93386.41;;;-0.21;100.00
8334;BME280;4204;43.004;23.052;2023-01-31T04:17:45;93386.16;;;-0.19;100.00
8334;BME280;4204;43.004;23.052;2023-01-31T04:20:12;93380.94;;;-0.19;100.00
8334;BME280;4204;43.004;23.052;2023-01-31T04:22:40;93389.31;;;-0.17;100.00
8334;BME280;4204;43.004;23.052;2023-01-31T04:25:09;93381.47;;;-0.17;100.00
8334;BME280;4204;43.004;23.052;2023-01-31T04:27:37;93397.66;;;-0.10;100.00
8334;BME280;4204;43.004;23.052;2023-01-31T04:30:06;93396.63;;;-0.04;100.00
8334;BME280;4204;43.004;23.052;2023-01-31T04:32:34;93393.25;;;0.00;100.00
8334;BME280;4204;43.004;23.052;2023-01-31T04:35:02;93381.25;;;0.05;100.00
8334;BME280;4204;43.004;23.052;2023-01-31T04:37:29;93379.44;;;0.00;100.00
8334;BME280;4204;43.004;23.052;2023-01-31T04:39:57;93384.88;;;-0.02;100.00
8334;BME280;4204;43.004;23.052;2023-01-31T04:42:26;93396.69;;;0.06;100.00
8334;BME280;4204;43.004;23.052;2023-01-31T04:44:54;93398.50;;;-0.05;100.00
8334;BME280;4204;43.004;23.052;2023-01-31T04:47:21;93389.59;;;0.07;100.00
8334;BME280;4204;43.004;23.052;2023-01-31T04:49:49;93381.81;;;0.22;100.00
8334;BME280;4204;43.004;23.052;2023-01-31T04:52:17;93392.78;;;0.19;100.00
8334;BME280;4204;43.004;23.052;2023-01-31T04:54:44;93391.97;;;0.13;100.00
8334;BME280;4204;43.004;23.052;2023-01-31T04:57:12;93392.75;;;0.09;100.00
8334;BME280;4204;43.004;23.052;2023-01-31T04:59:41;93384.41;;;0.12;100.00
8334;BME280;4204;43.004;23.052;2023-01-31T05:02:08;93378.13;;;0.08;100.00
8334;BME280;4204;43.004;23.052;2023-01-31T05:04:36;93375.78;;;0.06;100.00
8334;BME280;4204;43.004;23.052;2023-01-31T05:07:04;93377.84;;;0.09;100.00
8334;BME280;4204;43.004;23.052;2023-01-31T05:09:31;93356.66;;;0.00;100.00
8334;BME280;4204;43.004;23.052;2023-01-31T05:11:59;93376.56;;;0.12;100.00
8334;BME280;4204;43.004;23.052;2023-01-31T05:14:27;93378.38;;;0.11;100.00
8334;BME280;4204;43.004;23.052;2023-01-31T05:16:56;93382.03;;;0.15;100.00
8334;BME280;4204;43.004;23.052;2023-01-31T05:19:24;93387.53;;;0.09;100.00
8334;BME280;4204;43.004;23.052;2023-01-31T05:21:52;93384.13;;;0.03;100.00
8334;BME280;4204;43.004;23.052;2023-01-31T05:24:26;93391.16;;;0.03;100.00
8334;BME280;4204;43.004;23.052;2023-01-31T05:26:55;93379.16;;;0.02;100.00
8334;BME280;4204;43.004;23.052;2023-01-31T05:29:24;93389.84;;;-0.10;100.00
8334;BME280;4204;43.004;23.052;2023-01-31T05:31:52;93382.84;;;0.46;100.00
8334;BME280;4204;43.004;23.052;2023-01-31T05:34:23;93391.47;;;0.31;100.00
8334;BME280;4204;43.004;23.052;2023-01-31T05:36:51;93400.63;;;0.19;100.00
8334;BME280;4204;43.004;23.052;2023-01-31T05:39:20;93398.00;;;0.14;100.00
8334;BME280;4204;43.004;23.052;2023-01-31T05:41:47;93410.56;;;0.12;100.00
8334;BME280;4204;43.004;23.052;2023-01-31T05:44:15;93413.16;;;0.12;100.00
8334;BME280;4204;43.004;23.052;2023-01-31T05:46:43;93409.78;;;0.21;100.00
8334;BME280;4204;43.004;23.052;2023-01-31T05:49:11;93405.06;;;0.13;100.00
8334;BME280;4204;43.004;23.052;2023-01-31T05:51:41;93406.66;;;0.24;100.00
8334;BME280;4204;43.004;23.052;2023-01-31T05:54:10;93381.56;;;0.28;100.00
8334;BME280;4204;43.004;23.052;2023-01-31T05:56:38;93386.25;;;0.26;100.00
8334;BME280;4204;43.004;23.052;2023-01-31T05:59:05;93394.38;;;0.25;100.00
8334;BME280;4204;43.004;23.052;2023-01-31T06:01:33;93398.56;;;0.31;100.00
8334;BME280;4204;43.004;23.052;2023-01-31T06:04:01;93389.13;;;0.30;100.00
8334;BME280;4204;43.004;23.052;2023-01-31T06:06:30;93394.91;;;0.37;100.00
8334;BME280;4204;43.004;23.052;2023-01-31T06:08:59;93400.41;;;0.45;100.00
8334;BME280;4204;43.004;23.052;2023-01-31T06:11:26;93402.50;;;0.43;100.00
8334;BME280;4204;43.004;23.052;2023-01-31T06:13:54;93403.00;;;0.40;100.00
8334;BME280;4204;43.004;23.052;2023-01-31T06:16:24;93405.38;;;0.37;100.00
8334;BME280;4204;43.004;23.052;2023-01-31T06:18:51;93415.28;;;0.40;100.00
8334;BME280;4204;43.004;23.052;2023-01-31T06:21:21;93413.97;;;0.32;100.00
8334;BME280;4204;43.004;23.052;2023-01-31T06:23:48;93425.53;;;0.41;100.00
8334;BME280;4204;43.004;23.052;2023-01-31T06:26:17;93422.13;;;0.51;100.00
8334;BME280;4204;43.004;23.052;2023-01-31T06:28:45;93429.44;;;0.49;100.00
8334;BME280;4204;43.004;23.052;2023-01-31T06:31:13;93431.78;;;0.50;100.00
8334;BME280;4204;43.004;23.052;2023-01-31T06:33:40;93420.28;;;0.51;100.00
8334;BME280;4204;43.004;23.052;2023-01-31T06:36:09;93426.03;;;0.58;100.00
8334;BME280;4204;43.004;23.052;2023-01-31T06:38:36;93429.47;;;0.64;100.00
8334;BME280;4204;43.004;23.052;2023-01-31T06:41:04;93435.47;;;0.54;100.00
8334;BME280;4204;43.004;23.052;2023-01-31T06:43:33;93434.66;;;0.54;100.00
8334;BME280;4204;43.004;23.052;2023-01-31T06:46:01;93443.31;;;0.49;100.00
8334;BME280;4204;43.004;23.052;2023-01-31T06:48:28;93442.00;;;0.52;100.00
8334;BME280;4204;43.004;23.052;2023-01-31T06:50:56;93441.72;;;0.48;100.00
8334;BME280;4204;43.004;23.052;2023-01-31T06:53:24;93448.31;;;0.56;100.00
8334;BME280;4204;43.004;23.052;2023-01-31T06:55:51;93454.03;;;0.53;100.00
8334;BME280;4204;43.004;23.052;2023-01-31T06:58:19;93443.59;;;1.03;100.00
8334;BME280;4204;43.004;23.052;2023-01-31T07:00:48;93435.97;;;1.02;100.00
8334;BME280;4204;43.004;23.052;2023-01-31T07:03:16;93445.16;;;0.84;100.00
8334;BME280;4204;43.004;23.052;2023-01-31T07:05:44;93449.34;;;0.70;100.00
8334;BME280;4204;43.004;23.052;2023-01-31T07:08:13;93457.44;;;0.68;100.00
8334;BME280;4204;43.004;23.052;2023-01-31T07:10:41;93467.16;;;0.93;100.00
8334;BME280;4204;43.004;23.052;2023-01-31T07:13:09;93469.78;;;1.03;100.00
8334;BME280;4204;43.004;23.052;2023-01-31T07:15:37;93462.44;;;1.05;100.00
8334;BME280;4204;43.004;23.052;2023-01-31T07:18:06;93464.53;;;1.13;100.00
8334;BME280;4204;43.004;23.052;2023-01-31T07:20:34;93471.34;;;1.04;100.00
8334;BME280;4204;43.004;23.052;2023-01-31T07:23:01;93462.19;;;1.07;100.00
8334;BME280;4204;43.004;23.052;2023-01-31T07:25:29;93467.69;;;1.05;100.00
8334;BME280;4204;43.004;23.052;2023-01-31T07:27:59;93465.06;;;1.00;100.00
8334;BME280;4204;43.004;23.052;2023-01-31T07:30:27;93477.09;;;0.96;100.00
8334;BME280;4204;43.004;23.052;2023-01-31T07:32:55;93475.53;;;1.05;100.00
8334;BME280;4204;43.004;23.052;2023-01-31T07:35:24;93475.28;;;1.12;100.00
8334;BME280;4204;43.004;23.052;2023-01-31T07:37:51;93478.66;;;1.02;100.00
8334;BME280;4204;43.004;23.052;2023-01-31T07:40:19;93473.97;;;0.99;100.00
8334;BME280;4204;43.004;23.052;2023-01-31T07:42:47;93466.66;;;1.01;100.00
8334;BME280;4204;43.004;23.052;2023-01-31T07:45:15;93476.06;;;1.07;100.00
8334;BME280;4204;43.004;23.052;2023-01-31T07:47:43;93475.00;;;0.98;100.00
8334;BME280;4204;43.004;23.052;2023-01-31T07:50:11;93466.38;;;1.18;100.00
8334;BME280;4204;43.004;23.052;2023-01-31T07:52:40;93466.38;;;1.18;100.00
8334;BME280;4204;43.004;23.052;2023-01-31T07:55:08;93471.34;;;1.14;100.00
8334;BME280;4204;43.004;23.052;2023-01-31T07:57:36;93472.91;;;1.15;100.00
8334;BME280;4204;43.004;23.052;2023-01-31T08:00:04;93480.78;;;1.15;100.00
8334;BME280;4204;43.004;23.052;2023-01-31T08:02:53;93471.34;;;1.14;100.00
8334;BME280;4204;43.004;23.052;2023-01-31T08:05:38;93479.72;;;1.21;100.00
8334;BME280;4204;43.004;23.052;2023-01-31T08:08:07;93486.25;;;1.29;100.00
8334;BME280;4204;43.004;23.052;2023-01-31T08:10:38;93486.53;;;1.12;100.00
8334;BME280;4204;43.004;23.052;2023-01-31T08:13:05;93488.63;;;1.15;100.00
8334;BME280;4204;43.004;23.052;2023-01-31T08:15:33;93481.56;;;1.11;100.00
8334;BME280;4204;43.004;23.052;2023-01-31T08:18:01;93487.06;;;1.09;100.00
8334;BME280;4204;43.004;23.052;2023-01-31T08:20:29;93478.66;;;1.12;100.00
8334;BME280;4204;43.004;23.052;2023-01-31T08:22:56;93487.31;;;1.13;100.00
8334;BME280;4204;43.004;23.052;2023-01-31T08:25:26;93487.84;;;1.15;100.00
8334;BME280;4204;43.004;23.052;2023-01-31T08:27:56;93489.13;;;1.22;100.00
8334;BME280;4204;43.004;23.052;2023-01-31T08:30:23;93484.44;;;1.14;100.00
8334;BME280;4204;43.004;23.052;2023-01-31T08:32:51;93484.19;;;1.16;100.00
8334;BME280;4204;43.004;23.052;2023-01-31T08:35:19;93488.88;;;1.19;100.00
8334;BME280;4204;43.004;23.052;2023-01-31T08:37:47;93486.50;;;1.22;100.00
8334;BME280;4204;43.004;23.052;2023-01-31T08:40:15;93497.00;;;1.27;100.00
8334;BME280;4204;43.004;23.052;2023-01-31T08:42:52;93493.34;;;1.38;100.00
8334;BME280;4204;43.004;23.052;2023-01-31T08:45:20;93497.00;;;1.32;100.00
8334;BME280;4204;43.004;23.052;2023-01-31T08:47:52;93493.59;;;1.32;100.00
8334;BME280;4204;43.004;23.052;2023-01-31T08:50:21;93509.03;;;1.28;100.00
8334;BME280;4204;43.004;23.052;2023-01-31T08:52:51;93509.81;;;1.39;100.00
8334;BME280;4204;43.004;23.052;2023-01-31T08:55:20;93508.50;;;1.41;100.00
8334;BME280;4204;43.004;23.052;2023-01-31T08:57:50;93504.28;;;1.55;100.00
8334;BME280;4204;43.004;23.052;2023-01-31T09:00:19;93510.09;;;1.52;100.00
8334;BME280;4204;43.004;23.052;2023-01-31T09:02:50;93500.63;;;1.67;100.00
8334;BME280;4204;43.004;23.052;2023-01-31T09:05:18;93498.53;;;1.58;100.00
8334;BME280;4204;43.004;23.052;2023-01-31T09:07:46;93498.78;;;1.62;100.00
8334;BME280;4204;43.004;23.052;2023-01-31T09:10:14;93493.28;;;1.63;100.00
8334;BME280;4204;43.004;23.052;2023-01-31T09:12:41;93504.28;;;1.65;100.00
8334;BME280;4204;43.004;23.052;2023-01-31T09:15:11;93492.72;;;1.77;100.00
8334;BME280;4204;43.004;23.052;2023-01-31T09:17:39;93496.94;;;1.73;100.00
8334;BME280;4204;43.004;23.052;2023-01-31T09:20:09;93498.50;;;1.79;100.00
8334;BME280;4204;43.004;23.052;2023-01-31T09:22:36;93494.03;;;1.79;100.00
8334;BME280;4204;43.004;23.052;2023-01-31T09:25:05;93485.09;;;1.85;100.00
8334;BME280;4204;43.004;23.052;2023-01-31T09:27:34;93486.16;;;1.79;100.00
8334;BME280;4204;43.004;23.052;2023-01-31T09:30:04;93490.66;;;1.69;100.00
8334;BME280;4204;43.004;23.052;2023-01-31T09:32:34;93493.00;;;1.75;100.00
8334;BME280;4204;43.004;23.052;2023-01-31T09:35:02;93496.94;;;1.57;100.00
8334;BME280;4204;43.004;23.052;2023-01-31T09:37:30;93489.63;;;1.64;100.00
8334;BME280;4204;43.004;23.052;2023-01-31T09:39:57;93482.50;;;1.70;100.00
8334;BME280;4204;43.004;23.052;2023-01-31T09:42:27;93486.44;;;1.73;100.00
8334;BME280;4204;43.004;23.052;2023-01-31T09:45:00;93491.41;;;1.84;100.00
8334;BME280;4204;43.004;23.052;2023-01-31T09:47:35;93474.88;;;1.79;100.00
8334;BME280;4204;43.004;23.052;2023-01-31T09:50:09;93486.41;;;1.83;100.00
8334;BME280;4204;43.004;23.052;2023-01-31T09:52:39;93479.09;;;1.75;100.00
8334;BME280;4204;43.004;23.052;2023-01-31T09:55:14;93483.75;;;1.93;100.00
8334;BME280;4204;43.004;23.052;2023-01-31T09:57:49;93474.31;;;1.97;100.00
8334;BME280;4204;43.004;23.052;2023-01-31T10:00:24;93479.59;;;1.87;100.00
8334;BME280;4204;43.004;23.052;2023-01-31T10:06:02;93457.06;;;1.86;100.00
8334;BME280;4204;43.004;23.052;2023-01-31T10:08:40;93466.94;;;1.99;100.00
8334;BME280;4204;43.004;23.052;2023-01-31T10:11:15;93465.16;;;1.94;100.00
8334;BME280;4204;43.004;23.052;2023-01-31T10:13:48;93462.25;;;1.91;100.00
8334;BME280;4204;43.004;23.052;2023-01-31T10:16:25;93471.69;;;1.97;100.00
8334;BME280;4204;43.004;23.052;2023-01-31T10:18:58;93466.66;;;2.05;100.00
8334;BME280;4204;43.004;23.052;2023-01-31T10:21:31;93465.34;;;2.08;100.00
8334;BME280;4204;43.004;23.052;2023-01-31T10:24:05;93456.41;;;2.14;100.00
8334;BME280;4204;43.004;23.052;2023-01-31T10:26:43;93466.94;;;2.09;100.00
8334;BME280;4204;43.004;23.052;2023-01-31T10:29:15;93461.19;;;2.02;100.00
8334;BME280;4204;43.004;23.052;2023-01-31T10:31:47;93455.41;;;2.05;100.00
8334;BME280;4204;43.004;23.052;2023-01-31T10:34:23;93460.16;;;2.03;100.00
8334;BME280;4204;43.004;23.052;2023-01-31T10:36:56;93449.66;;;1.98;100.00
8334;BME280;4204;43.004;23.052;2023-01-31T10:39:29;93449.56;;;2.18;100.00
8334;BME280;4204;43.004;23.052;2023-01-31T10:42:11;93461.03;;;2.32;100.00
8334;BME280;4204;43.004;23.052;2023-01-31T10:44:46;93457.94;;;2.25;100.00
8334;BME280;4204;43.004;23.052;2023-01-31T10:47:17;93452.47;;;2.21;100.00
8334;BME280;4204;43.004;23.052;2023-01-31T10:49:48;93450.41;;;2.08;100.00
8334;BME280;4204;43.004;23.052;2023-01-31T10:52:30;93457.75;;;2.06;100.00
8334;BME280;4204;43.004;23.052;2023-01-31T10:55:13;93446.00;;;1.94;100.00
8334;BME280;4204;43.004;23.052;2023-01-31T10:57:46;93453.09;;;1.93;100.00
8334;BME280;4204;43.004;23.052;2023-01-31T11:00:19;93447.03;;;1.93;100.00
8334;BME280;4204;43.004;23.052;2023-01-31T11:02:48;93445.22;;;1.98;100.00
8334;BME280;4204;43.004;23.052;2023-01-31T11:05:19;93459.09;;;1.99;100.00
8334;BME280;4204;43.004;23.052;2023-01-31T11:07:48;93460.44;;;1.91;100.00
8334;BME280;4204;43.004;23.052;2023-01-31T11:10:20;93453.84;;;1.99;100.00
8334;BME280;4204;43.004;23.052;2023-01-31T11:12:52;93443.84;;;2.06;100.00
8334;BME280;4204;43.004;23.052;2023-01-31T11:15:23;93452.75;;;2.10;100.00
8334;BME280;4204;43.004;23.052;2023-01-31T11:17:52;93465.59;;;2.11;100.00
8334;BME280;4204;43.004;23.052;2023-01-31T11:20:27;93455.94;;;2.07;100.00
8334;BME280;4204;43.004;23.052;2023-01-31T11:22:56;93452.81;;;1.95;100.00
8334;BME280;4204;43.004;23.052;2023-01-31T11:25:26;93451.72;;;2.01;100.00
8334;BME280;4204;43.004;23.052;2023-01-31T11:27:58;93449.09;;;2.01;100.00
8334;BME280;4204;43.004;23.052;2023-01-31T11:30:29;93443.63;;;2.02;100.00
8334;BME280;4204;43.004;23.052;2023-01-31T11:32:58;93453.84;;;1.99;100.00
8334;BME280;4204;43.004;23.052;2023-01-31T11:35:28;93450.94;;;2.05;100.00
8334;BME280;4204;43.004;23.052;2023-01-31T11:37:58;93446.00;;;1.94;100.00
8334;BME280;4204;43.004;23.052;2023-01-31T11:40:29;93436.81;;;1.96;100.00
8334;BME280;4204;43.004;23.052;2023-01-31T11:42:59;93430.78;;;1.96;100.00
8334;BME280;4204;43.004;23.052;2023-01-31T11:45:29;93435.47;;;2.04;100.00
8334;BME280;4204;43.004;23.052;2023-01-31T11:48:04;93436.22;;;2.09;100.00
8334;BME280;4204;43.004;23.052;2023-01-31T11:50:36;93433.38;;;2.06;100.00
8334;BME280;4204;43.004;23.052;2023-01-31T11:53:15;93422.53;;;2.17;100.00
8334;BME280;4204;43.004;23.052;2023-01-31T11:55:45;93421.28;;;2.10;100.00
8334;BME280;4204;43.004;23.052;2023-01-31T11:58:18;93431.19;;;2.23;100.00
8334;BME280;4204;43.004;23.052;2023-01-31T12:00:53;93423.34;;;2.18;100.00
8334;BME280;4204;43.004;23.052;2023-01-31T12:03:22;93444.31;;;2.18;100.00
8334;BME280;4204;43.004;23.052;2023-01-31T12:06:00;93441.19;;;2.16;100.00
8334;BME280;4204;43.004;23.052;2023-01-31T12:08:29;93435.91;;;2.21;100.00
8334;BME280;4204;43.004;23.052;2023-01-31T12:10:58;93439.13;;;2.13;100.00
8334;BME280;4204;43.004;23.052;2023-01-31T12:13:30;93438.63;;;2.01;100.00
8334;BME280;4204;43.004;23.052;2023-01-31T12:16:00;93446.50;;;2.01;100.00
8334;BME280;4204;43.004;23.052;2023-01-31T12:18:38;93446.53;;;1.96;100.00
8334;BME280;4204;43.004;23.052;2023-01-31T12:21:14;93434.22;;;1.91;100.00
8334;BME280;4204;43.004;23.052;2023-01-31T12:23:53;93435.47;;;1.99;100.00
8334;BME280;4204;43.004;23.052;2023-01-31T12:26:32;93442.06;;;1.96;100.00
8334;BME280;4204;43.004;23.052;2023-01-31T12:29:23;93443.34;;;1.99;100.00
8334;BME280;4204;43.004;23.052;2023-01-31T12:32:08;93437.34;;;1.98;100.00
8334;BME280;4204;43.004;23.052;2023-01-31T12:34:56;93449.66;;;2.03;100.00
8334;BME280;4204;43.004;23.052;2023-01-31T12:37:38;93435.19;;;2.05;100.00
8334;BME280;4204;43.004;23.052;2023-01-31T12:40:25;93443.34;;;2.04;100.00
8334;BME280;4204;43.004;23.052;2023-01-31T12:42:58;93446.75;;;1.99;100.00
8334;BME280;4204;43.004;23.052;2023-01-31T12:45:41;93446.75;;;1.99;100.00
8334;BME280;4204;43.004;23.052;2023-01-31T12:48:34;93451.22;;;1.99;100.00
8334;BME280;4204;43.004;23.052;2023-01-31T12:51:14;93454.84;;;2.13;100.00
8334;BME280;4204;43.004;23.052;2023-01-31T12:54:02;93446.72;;;2.14;100.00
8334;BME280;4204;43.004;23.052;2023-01-31T12:56:45;93455.09;;;2.11;100.00
8334;BME280;4204;43.004;23.052;2023-01-31T12:59:25;93449.09;;;2.06;100.00
8334;BME280;4204;43.004;23.052;2023-01-31T13:02:09;93449.66;;;2.03;100.00
8334;BME280;4204;43.004;23.052;2023-01-31T13:04:41;93450.97;;;2.00;100.00
8334;BME280;4204;43.004;23.052;2023-01-31T13:07:16;93453.31;;;2.07;100.00
8334;BME280;4204;43.004;23.052;2023-01-31T13:09:50;93457.47;;;2.13;100.00
8334;BME280;4204;43.004;23.052;2023-01-31T13:12:20;93454.56;;;2.14;100.00
8334;BME280;4204;43.004;23.052;2023-01-31T13:14:56;93443.28;;;2.14;100.00
8334;BME280;4204;43.004;23.052;2023-01-31T13:17:30;93455.88;;;2.17;100.00
8334;BME280;4204;43.004;23.052;2023-01-31T13:20:02;93458.28;;;2.08;100.00
8334;BME280;4204;43.004;23.052;2023-01-31T13:22:41;93448.81;;;2.12;100.00
8334;BME280;4204;43.004;23.052;2023-01-31T13:25:16;93449.09;;;2.11;100.00
8334;BME280;4204;43.004;23.052;2023-01-31T13:27:53;93446.25;;;2.02;100.00
8334;BME280;4204;43.004;23.052;2023-01-31T13:30:30;93443.56;;;2.12;100.00
8334;BME280;4204;43.004;23.052;2023-01-31T13:33:02;93445.16;;;2.03;100.00
8334;BME280;4204;43.004;23.052;2023-01-31T13:35:37;93460.84;;;2.13;100.00
8334;BME280;4204;43.004;23.052;2023-01-31T13:38:12;93466.09;;;2.23;100.00